createdAt,value
2023-01-26T00:01:59.205Z,19.80
2023-01-26T00:07:00.746Z,25.40
2023-01-26T00:12:02.218Z,20.90
2023-01-26T00:17:03.704Z,30.30
2023-01-26T00:22:05.184Z,26.00
2023-01-26T00:27:06.670Z,22.10
2023-01-26T00:32:08.156Z,18.50
2023-01-26T00:37:09.650Z,14.10
2023-01-26T00:42:14.092Z,19.80
2023-01-26T00:52:17.068Z,20.40
2023-01-26T00:57:18.639Z,18.60
2023-01-26T01:02:20.688Z,21.70
2023-01-26T01:07:22.220Z,19.50
2023-01-26T01:12:23.817Z,17.40
2023-01-26T01:17:25.653Z,15.10
2023-01-26T01:22:27.131Z,21.20
2023-01-26T01:27:28.720Z,18.50
2023-01-26T01:32:30.234Z,17.60
2023-01-26T01:37:33.492Z,16.70
2023-01-26T01:42:34.970Z,18.20
2023-01-26T01:47:36.511Z,17.20
2023-01-26T01:52:38.022Z,15.00
2023-01-26T01:57:55.845Z,22.50
2023-01-26T02:03:21.131Z,18.00
2023-01-26T02:08:27.807Z,16.40
2023-01-26T02:13:31.702Z,16.10
2023-01-26T02:18:33.448Z,17.00
2023-01-26T02:23:41.333Z,16.40
2023-01-26T02:28:44.679Z,21.10
2023-01-26T02:33:46.264Z,16.10
2023-01-26T02:39:29.570Z,20.00
2023-01-26T02:44:32.374Z,20.00
2023-01-26T02:49:50.756Z,14.40
2023-01-26T02:55:12.162Z,16.30
2023-01-26T03:00:18.775Z,23.30
2023-01-26T03:05:20.635Z,18.40
2023-01-26T03:10:24.305Z,19.60
2023-01-26T03:15:43.388Z,17.80
2023-01-26T03:21:03.675Z,19.80
2023-01-26T03:26:23.700Z,20.20
2023-01-26T03:31:25.284Z,18.20
2023-01-26T03:36:26.797Z,18.90
2023-01-26T03:41:47.125Z,18.50
2023-01-26T03:47:07.092Z,11.20
2023-01-26T03:52:27.145Z,19.50
2023-01-26T03:57:29.563Z,24.60
2023-01-26T04:02:49.484Z,18.60
2023-01-26T04:08:09.465Z,18.80
2023-01-26T04:13:29.462Z,16.70
2023-01-26T04:18:49.904Z,15.40
2023-01-26T04:23:58.066Z,21.20
2023-01-26T04:28:59.712Z,24.90
2023-01-26T04:34:03.189Z,20.50
2023-01-26T04:39:04.987Z,17.00
2023-01-26T04:44:06.496Z,22.20
2023-01-26T04:49:08.920Z,22.20
2023-01-26T04:54:10.453Z,22.70
2023-01-26T04:59:12.362Z,18.90
2023-01-26T05:04:14.282Z,22.40
2023-01-26T05:09:15.772Z,16.30
2023-01-26T05:14:17.304Z,15.00
2023-01-26T05:19:18.820Z,12.80
2023-01-26T05:24:20.328Z,11.50
2023-01-26T05:29:23.421Z,10.50
2023-01-26T05:34:24.875Z,21.90
2023-01-26T05:39:26.345Z,16.60
2023-01-26T05:44:29.415Z,16.00
2023-01-26T05:49:31.507Z,15.80
2023-01-26T05:54:33.011Z,10.10
2023-01-26T05:59:37.110Z,14.90
2023-01-26T06:04:38.762Z,20.20
2023-01-26T06:09:41.092Z,16.70
2023-01-26T06:14:42.819Z,14.00
2023-01-26T06:19:44.620Z,14.90
2023-01-26T06:24:50.114Z,14.00
2023-01-26T06:29:51.640Z,13.70
2023-01-26T06:34:56.144Z,17.50
2023-01-26T06:44:59.072Z,13.30
2023-01-26T06:50:03.564Z,12.10
2023-01-26T07:00:07.716Z,11.30
2023-01-26T07:05:11.114Z,10.40
2023-01-26T07:10:13.679Z,7.70
2023-01-26T07:15:15.467Z,10.30
2023-01-26T07:20:17.011Z,11.20
2023-01-26T07:25:19.348Z,9.40
2023-01-26T07:30:23.105Z,12.40
2023-01-26T07:35:24.650Z,4.80
2023-01-26T07:40:26.166Z,12.90
2023-01-26T07:45:28.280Z,11.20
2023-01-26T07:50:30.272Z,17.00
2023-01-26T07:55:31.764Z,12.20
2023-01-26T08:00:33.228Z,8.00
2023-01-26T08:05:37.129Z,9.80
2023-01-26T08:10:38.962Z,12.20
2023-01-26T08:15:40.433Z,9.30
2023-01-26T08:20:42.535Z,8.90
2023-01-26T08:25:44.684Z,11.00
2023-01-26T08:30:46.207Z,8.80
2023-01-26T08:35:47.713Z,9.80
2023-01-26T08:40:52.199Z,8.60
2023-01-26T08:45:56.261Z,10.40
2023-01-26T08:51:02.459Z,11.70
2023-01-26T08:56:06.217Z,17.40
2023-01-26T09:01:11.754Z,12.70
2023-01-26T09:06:17.359Z,6.70
2023-01-26T09:11:18.824Z,18.50
2023-01-26T09:16:20.772Z,11.90
2023-01-26T09:21:25.150Z,9.30
2023-01-26T09:26:26.687Z,13.10
2023-01-26T09:31:28.339Z,8.10
2023-01-26T09:36:29.995Z,8.60
2023-01-26T09:41:57.097Z,8.60
2023-01-26T09:47:21.716Z,8.00
2023-01-26T09:52:39.442Z,7.60
2023-01-26T09:58:13.306Z,10.80
2023-01-26T10:03:43.094Z,11.30
2023-01-26T10:08:45.288Z,8.70
2023-01-26T10:13:57.091Z,8.60
2023-01-26T10:19:12.800Z,16.70
2023-01-26T10:24:20.786Z,14.40
2023-01-26T10:29:23.011Z,8.60
2023-01-26T10:34:27.723Z,7.90
2023-01-26T10:39:29.278Z,4.90
2023-01-26T10:44:38.599Z,8.70
2023-01-26T10:49:40.272Z,7.50
2023-01-26T10:54:44.012Z,8.70
2023-01-26T10:59:53.613Z,6.20
2023-01-26T11:05:07.080Z,8.70
2023-01-26T11:10:28.204Z,6.80
2023-01-26T11:15:36.653Z,8.70
2023-01-26T11:20:51.934Z,10.20
2023-01-26T11:26:15.342Z,10.10
2023-01-26T11:31:40.090Z,9.70
2023-01-26T11:37:16.361Z,9.80
2023-01-26T11:42:36.134Z,10.00
2023-01-26T11:48:08.235Z,10.30
2023-01-26T11:53:24.074Z,5.60
2023-01-26T11:58:41.131Z,10.80
2023-01-26T12:03:49.479Z,12.00
2023-01-26T12:09:00.396Z,10.60
2023-01-26T12:14:23.178Z,9.80
2023-01-26T12:19:33.831Z,10.40
2023-01-26T12:25:08.182Z,9.50
2023-01-26T12:30:19.935Z,9.80
2023-01-26T12:35:46.728Z,8.20
2023-01-26T12:41:14.231Z,7.30
2023-01-26T12:46:17.892Z,6.40
2023-01-26T12:51:29.820Z,8.60
2023-01-26T12:56:45.551Z,9.00
2023-01-26T13:01:47.668Z,10.10
2023-01-26T13:07:33.567Z,12.10
2023-01-26T13:17:51.498Z,18.90
2023-01-26T13:22:54.710Z,10.50
2023-01-26T13:27:59.049Z,8.90
2023-01-26T13:38:39.250Z,8.00
2023-01-26T13:43:46.382Z,11.00
2023-01-26T13:48:55.387Z,5.10
2023-01-26T13:54:01.694Z,6.70
2023-01-26T13:59:09.234Z,15.20
2023-01-26T14:04:21.410Z,11.00
2023-01-26T14:09:26.503Z,11.00
2023-01-26T14:14:31.635Z,16.40
2023-01-26T14:19:40.207Z,13.30
2023-01-26T14:24:43.350Z,14.50
2023-01-26T14:29:44.908Z,16.20
2023-01-26T14:34:55.009Z,20.70
2023-01-26T14:40:23.600Z,11.50
2023-01-26T14:45:31.327Z,10.40
2023-01-26T14:50:33.892Z,18.60
2023-01-26T14:55:36.469Z,12.50
2023-01-26T15:06:20.364Z,12.60
2023-01-26T15:11:58.329Z,13.60
2023-01-26T15:17:00.163Z,12.60
2023-01-26T15:22:01.738Z,20.60
2023-01-26T15:27:07.491Z,27.80
2023-01-26T15:32:28.488Z,29.70
2023-01-26T15:37:32.712Z,23.90
2023-01-26T15:42:34.414Z,34.90
2023-01-26T15:47:35.894Z,15.10
2023-01-26T15:52:37.431Z,18.80
2023-01-26T15:57:38.942Z,18.20
2023-01-26T16:02:40.494Z,20.80
2023-01-26T16:07:42.089Z,14.60
2023-01-26T16:12:44.711Z,12.60
2023-01-26T16:17:46.228Z,14.70
2023-01-26T16:22:47.741Z,18.10
2023-01-26T16:27:49.662Z,27.50
2023-01-26T16:32:51.989Z,17.60
2023-01-26T16:37:54.422Z,11.60
2023-01-26T16:42:56.131Z,24.60
2023-01-26T16:47:58.285Z,15.70
2023-01-26T16:53:07.811Z,11.80
2023-01-26T16:58:09.458Z,24.50
2023-01-26T17:03:13.907Z,25.40
2023-01-26T17:13:17.892Z,21.00
2023-01-26T17:18:19.867Z,19.50
2023-01-26T17:23:21.490Z,30.20
2023-01-26T17:28:23.063Z,24.70
2023-01-26T17:33:24.613Z,10.80
2023-01-26T17:38:26.129Z,17.20
2023-01-26T17:43:28.735Z,19.10
2023-01-26T17:48:33.717Z,16.80
2023-01-26T17:53:44.931Z,22.40
2023-01-26T17:58:55.320Z,19.30
2023-01-26T18:03:57.361Z,16.90
2023-01-26T18:08:58.899Z,19.50
2023-01-26T18:14:00.497Z,20.60
2023-01-26T18:19:04.344Z,20.50
2023-01-26T18:24:06.799Z,20.90
2023-01-26T18:29:09.532Z,23.30
2023-01-26T18:34:11.589Z,49.00
2023-01-26T18:39:14.725Z,28.20
2023-01-26T18:44:18.182Z,25.10
2023-01-26T18:49:19.773Z,19.10
2023-01-26T18:54:21.293Z,16.50
2023-01-26T18:59:22.884Z,34.30
2023-01-26T19:04:24.367Z,16.80
2023-01-26T19:09:30.707Z,16.80
2023-01-26T19:14:32.771Z,18.80
2023-01-26T19:19:34.583Z,21.60
2023-01-26T19:24:36.063Z,30.40
2023-01-26T19:29:37.649Z,24.40
2023-01-26T19:34:39.135Z,28.10
2023-01-26T19:39:40.733Z,20.80
2023-01-26T19:44:42.739Z,18.40
2023-01-26T19:49:44.208Z,16.60
2023-01-26T19:54:45.703Z,13.30
2023-01-26T19:59:47.710Z,12.50
2023-01-26T20:04:49.213Z,10.90
2023-01-26T20:09:51.048Z,13.80
2023-01-26T20:14:53.581Z,26.80
2023-01-26T20:19:56.071Z,22.60
2023-01-26T20:24:57.565Z,24.20
2023-01-26T20:29:59.522Z,25.20
2023-01-26T20:35:02.326Z,23.80
2023-01-26T20:40:05.831Z,40.90
2023-01-26T20:45:08.718Z,23.90
2023-01-26T20:50:12.830Z,22.40
2023-01-26T20:55:14.702Z,29.70
2023-01-26T21:00:17.044Z,18.30
2023-01-26T21:05:19.634Z,25.10
2023-01-26T21:10:21.271Z,19.40
2023-01-26T21:15:22.971Z,13.60
2023-01-26T21:20:24.918Z,15.00
2023-01-26T21:25:26.916Z,15.60
2023-01-26T21:30:28.470Z,15.50
2023-01-26T21:35:30.163Z,30.80
2023-01-26T21:40:31.680Z,28.50
2023-01-26T21:45:52.835Z,32.80
2023-01-26T21:51:17.645Z,32.30
2023-01-26T21:56:19.142Z,24.80
2023-01-26T22:01:21.681Z,32.60
2023-01-26T22:06:23.667Z,23.50
2023-01-26T22:11:26.166Z,25.40
2023-01-26T22:16:28.200Z,21.10
2023-01-26T22:21:29.795Z,21.50
2023-01-26T22:26:31.467Z,16.10
2023-01-26T22:31:33.903Z,18.00
2023-01-26T22:36:35.484Z,18.80
2023-01-26T22:41:37.790Z,15.60
2023-01-26T22:46:39.703Z,28.00
2023-01-26T22:51:41.304Z,25.50
2023-01-26T22:56:42.804Z,25.30
2023-01-26T23:01:44.423Z,29.00
2023-01-26T23:06:45.952Z,24.20
2023-01-26T23:11:47.416Z,18.50
2023-01-26T23:16:48.973Z,20.40
2023-01-26T23:21:50.535Z,20.10
2023-01-26T23:26:52.146Z,19.50
2023-01-26T23:31:53.691Z,20.30
2023-01-26T23:36:55.284Z,18.90
2023-01-26T23:41:57.446Z,20.30
2023-01-26T23:46:58.977Z,31.30
2023-01-26T23:52:00.548Z,21.90
2023-01-26T23:57:02.019Z,22.50
